Time;durP1;ratioP1;P1;durP2;ratioP2;P2;SDS_P1;SDS_P2;PMS_P1;PMS_P2;Temp;Humidity;BMP_temperature;BMP_pressure;BME280_temperature;BME280_humidity;BME280_pressure;Samples;Min_cycle;Max_cycle;Signal;HPM_P1;HPM_P2
2023/11/11 00:00:53;;;;;;;10.93;8.60;;;;;;;11.58;100.00;100574.44;2591665;22;20377;-65
2023/11/11 00:01:55;;;;;;;15.33;9.50;;;;;;;11.51;100.00;100573.84;2591640;22;20253;-65
2023/11/11 00:02:55;;;;;;;14.07;8.87;;;;;;;11.43;100.00;100569.75;2591968;22;20206;-65
2023/11/11 00:03:56;;;;;;;15.30;8.40;;;;;;;11.47;100.00;100556.56;2591953;22;20369;-65
2023/11/11 00:04:57;;;;;;;17.60;8.63;;;;;;;11.43;100.00;100562.19;2591423;22;20151;-65
2023/11/11 00:05:58;;;;;;;15.87;8.67;;;;;;;11.44;100.00;100562.97;2591941;22;20147;-66
2023/11/11 00:06:59;;;;;;;15.27;9.20;;;;;;;11.41;100.00;100561.84;2592116;22;20373;-65
2023/11/11 00:08:00;;;;;;;14.17;8.93;;;;;;;11.07;100.00;100522.00;2592206;22;20600;-65
2023/11/11 00:09:00;;;;;;;16.67;8.90;;;;;;;11.37;100.00;100572.25;2592417;22;20447;-65
2023/11/11 00:10:01;;;;;;;14.50;8.67;;;;;;;10.79;100.00;100509.69;2592294;22;20147;-65
2023/11/11 00:11:02;;;;;;;13.23;8.30;;;;;;;11.32;100.00;100564.47;2592077;22;20151;-65
2023/11/11 00:12:07;;;;;;;13.57;8.10;;;;;;;10.94;100.00;100499.78;2591639;22;20185;-64
2023/11/11 00:13:08;;;;;;;13.33;8.40;;;;;;;11.34;100.00;100561.25;2592201;22;20135;-65
2023/11/11 00:14:08;;;;;;;11.63;8.27;;;;;;;10.39;100.00;100413.38;2591327;22;20377;-65
2023/11/11 00:15:09;;;;;;;12.47;8.70;;;;;;;10.96;100.00;100513.97;2591485;22;20457;-65
2023/11/11 00:16:10;;;;;;;14.10;8.57;;;;;;;11.14;100.00;100516.25;2591757;22;20900;-64
2023/11/11 00:17:11;;;;;;;13.70;8.60;;;;;;;10.90;100.00;100467.81;2591859;22;20765;-65
2023/11/11 00:18:12;;;;;;;11.63;7.97;;;;;;;11.24;100.00;100523.50;2592095;22;20518;-65
2023/11/11 00:19:13;;;;;;;12.17;8.03;;;;;;;11.49;100.00;100560.44;2591743;22;20421;-66
2023/11/11 00:20:13;;;;;;;12.83;8.37;;;;;;;11.56;100.00;100560.22;2591423;22;20164;-65
2023/11/11 00:21:14;;;;;;;12.80;8.93;;;;;;;11.61;100.00;100572.81;2591805;22;20284;-65
2023/11/11 00:22:15;;;;;;;14.27;8.10;;;;;;;11.60;100.00;100551.81;2591538;22;20186;-65
2023/11/11 00:23:16;;;;;;;11.80;8.27;;;;;;;11.55;100.00;100558.69;2591922;22;20158;-64
2023/11/11 00:24:17;;;;;;;13.93;9.10;;;;;;;11.58;100.00;100551.47;2591225;22;20617;-65
2023/11/11 00:25:17;;;;;;;13.77;8.50;;;;;;;11.55;100.00;100546.78;2590194;22;20492;-65
2023/11/11 00:26:18;;;;;;;13.13;8.17;;;;;;;11.56;100.00;100549.13;2591296;22;20479;-65
2023/11/11 00:27:18;;;;;;;11.27;8.03;;;;;;;11.45;100.00;100545.88;2591632;22;20179;-64
2023/11/11 00:28:19;;;;;;;11.50;8.07;;;;;;;11.48;100.00;100560.88;2591745;22;20641;-65
2023/11/11 00:29:19;;;;;;;13.03;8.67;;;;;;;11.52;100.00;100565.09;2592085;22;20179;-65
2023/11/11 00:30:20;;;;;;;12.67;8.00;;;;;;;11.58;100.00;100562.56;2592187;22;20208;-65
2023/11/11 00:31:20;;;;;;;13.40;9.00;;;;;;;11.60;100.00;100557.38;2591885;22;20170;-65
2023/11/11 00:32:22;;;;;;;12.80;8.63;;;;;;;11.63;100.00;100570.38;2591730;22;20151;-65
2023/11/11 00:33:22;;;;;;;12.87;8.17;;;;;;;11.54;100.00;100548.00;2591418;22;20166;-65
2023/11/11 00:34:23;;;;;;;10.67;7.83;;;;;;;11.69;100.00;100554.75;2590195;22;20392;-65
2023/11/11 00:35:23;;;;;;;14.60;8.50;;;;;;;11.64;100.00;100544.19;2591754;22;20613;-65
2023/11/11 00:36:25;;;;;;;12.93;9.23;;;;;;;10.77;100.00;100439.28;2592478;22;20255;-65
2023/11/11 00:37:26;;;;;;;13.30;8.37;;;;;;;11.62;100.00;100539.06;2591577;22;20188;-66
2023/11/11 00:38:26;;;;;;;13.50;8.20;;;;;;;11.64;100.00;100546.97;2591636;22;20386;-65
2023/11/11 00:39:31;;;;;;;13.47;9.03;;;;;;;11.67;100.00;100544.06;2592102;22;20389;-64
2023/11/11 00:40:32;;;;;;;13.70;8.33;;;;;;;11.70;100.00;100551.53;2592323;22;20162;-65
2023/11/11 00:41:33;;;;;;;12.30;8.57;;;;;;;11.16;100.00;100467.47;2592014;22;20455;-65
2023/11/11 00:42:33;;;;;;;14.77;9.00;;;;;;;11.45;100.00;100509.81;2591678;22;20155;-65
2023/11/11 00:43:34;;;;;;;13.43;8.90;;;;;;;11.78;100.00;100554.88;2592327;22;20406;-65
2023/11/11 00:44:36;;;;;;;11.83;8.83;;;;;;;11.77;100.00;100553.28;2591060;22;20148;-65
2023/11/11 00:45:36;;;;;;;12.23;8.77;;;;;;;11.72;100.00;100545.50;2591994;22;20503;-66
2023/11/11 00:46:38;;;;;;;12.50;8.70;;;;;;;11.73;100.00;100545.06;2591964;22;20405;-65
2023/11/11 00:47:38;;;;;;;12.40;8.37;;;;;;;11.15;100.00;100445.69;2591838;22;20254;-65
2023/11/11 00:48:41;;;;;;;13.83;8.43;;;;;;;11.38;100.00;100475.94;2591712;22;20389;-65
2023/11/11 00:49:41;;;;;;;11.00;7.90;;;;;;;11.82;100.00;100545.22;2591637;22;20250;-65
2023/11/11 00:50:42;;;;;;;11.70;8.07;;;;;;;11.85;100.00;100551.88;2592399;22;20385;-64
2023/11/11 00:51:42;;;;;;;12.17;8.83;;;;;;;11.83;100.00;100557.88;2591188;22;20640;-64
2023/11/11 00:52:42;;;;;;;13.90;9.00;;;;;;;11.85;100.00;100561.00;2591775;22;20260;-66
2023/11/11 00:53:44;;;;;;;12.80;8.87;;;;;;;11.86;100.00;100558.97;2591788;22;20627;-64
2023/11/11 00:54:45;;;;;;;11.87;8.80;;;;;;;11.86;100.00;100558.97;2591221;22;20151;-64
2023/11/11 00:55:45;;;;;;;12.37;9.17;;;;;;;11.88;100.00;100571.19;2591791;22;20468;-65
2023/11/11 00:56:46;;;;;;;11.63;7.63;;;;;;;11.86;100.00;100556.19;2591769;22;20150;-65
2023/11/11 00:57:47;;;;;;;12.17;8.17;;;;;;;11.90;100.00;100554.91;2592082;22;20147;-65
2023/11/11 00:58:48;;;;;;;12.30;8.70;;;;;;;11.91;100.00;100558.44;2592098;22;20565;-65
2023/11/11 00:59:48;;;;;;;13.13;8.70;;;;;;;11.90;100.00;100551.31;2592766;22;20594;-65
2023/11/11 01:00:49;;;;;;;11.57;8.00;;;;;;;11.88;100.00;100537.88;2591585;22;20186;-65
2023/11/11 01:01:49;;;;;;;13.40;8.03;;;;;;;11.91;100.00;100542.56;2591278;22;20553;-65
2023/11/11 01:02:51;;;;;;;11.00;8.00;;;;;;;11.90;100.00;100545.78;2590730;22;20190;-65
2023/11/11 01:03:52;;;;;;;12.13;8.27;;;;;;;11.89;100.00;100542.22;2591135;22;20150;-64
2023/11/11 01:04:52;;;;;;;10.80;7.83;;;;;;;11.89;100.00;100539.44;2590487;22;20386;-65
2023/11/11 01:05:53;;;;;;;13.73;8.40;;;;;;;11.61;100.00;100492.31;2592220;22;20156;-65
2023/11/11 01:06:53;;;;;;;11.47;8.20;;;;;;;11.91;100.00;100537.00;2592030;22;20151;-64
2023/11/11 01:07:54;;;;;;;10.23;7.73;;;;;;;11.27;100.00;100440.19;2591720;22;20467;-65
2023/11/11 01:08:54;;;;;;;10.80;7.50;;;;;;;11.96;100.00;100535.66;2592204;22;20155;-64
2023/11/11 01:09:55;;;;;;;14.60;8.70;;;;;;;11.91;100.00;100534.22;2592082;22;20150;-65
2023/11/11 01:10:55;;;;;;;11.63;8.07;;;;;;;11.94;100.00;100532.56;2592400;22;20559;-64
2023/11/11 01:11:56;;;;;;;12.93;8.13;;;;;;;11.95;100.00;100532.09;2591211;22;20592;-65
2023/11/11 01:12:56;;;;;;;12.57;8.27;;;;;;;11.98;100.00;100536.78;2591607;22;20179;-64
2023/11/11 01:13:57;;;;;;;15.07;8.43;;;;;;;12.00;100.00;100542.66;2591435;22;20158;-64
2023/11/11 01:14:57;;;;;;;12.43;8.57;;;;;;;12.01;100.00;100535.91;2590517;22;20622;-65
2023/11/11 01:15:59;;;;;;;11.70;8.03;;;;;;;11.90;100.00;100527.13;2592254;22;20156;-65
2023/11/11 01:17:02;;;;;;;12.60;8.27;;;;;;;11.74;100.00;100502.22;2591669;22;20172;-65
2023/11/11 01:18:03;;;;;;;11.90;7.90;;;;;;;12.02;100.00;100542.22;2592290;22;20383;-65
2023/11/11 01:19:04;;;;;;;12.17;7.70;;;;;;;12.02;100.00;100537.44;2591938;22;20460;-65
2023/11/11 01:20:05;;;;;;;10.70;7.47;;;;;;;12.03;100.00;100532.66;2591009;22;20162;-65
2023/11/11 01:21:06;;;;;;;11.03;7.90;;;;;;;11.99;100.00;100538.31;2591137;22;20205;-64
2023/11/11 01:22:09;;;;;;;11.03;7.23;;;;;;;11.98;100.00;100534.00;2591528;22;20868;-64
2023/11/11 01:23:09;;;;;;;10.60;6.97;;;;;;;12.00;100.00;100533.56;2591922;22;20398;-65
2023/11/11 01:24:10;;;;;;;11.43;7.63;;;;;;;12.01;100.00;100530.34;2590641;22;20407;-65
2023/11/11 01:25:12;;;;;;;13.00;7.93;;;;;;;11.89;100.00;100511.66;2590740;22;20438;-65
2023/11/11 01:26:12;;;;;;;12.70;8.73;;;;;;;12.05;100.00;100527.47;2592440;22;20587;-64
2023/11/11 01:27:13;;;;;;;12.10;8.63;;;;;;;11.34;100.00;100437.22;2591611;22;20950;-65
2023/11/11 01:28:14;;;;;;;11.93;7.90;;;;;;;11.81;100.00;100492.91;2591707;22;20226;-65
2023/11/11 01:29:14;;;;;;;12.90;7.67;;;;;;;12.04;100.00;100532.22;2592342;22;20389;-65
2023/11/11 01:30:16;;;;;;;10.67;7.80;;;;;;;12.03;100.00;100532.66;2591792;22;20715;-64
2023/11/11 01:31:17;;;;;;;11.33;7.80;;;;;;;12.01;100.00;100524.00;2591800;22;20152;-65
2023/11/11 01:32:19;;;;;;;11.23;8.23;;;;;;;12.04;100.00;100521.09;2591634;22;20377;-65
2023/11/11 01:33:19;;;;;;;10.73;7.47;;;;;;;12.04;100.00;100517.56;2592409;22;20773;-65
2023/11/11 01:34:20;;;;;;;11.63;7.93;;;;;;;12.02;100.00;100525.56;2590764;22;20847;-65
2023/11/11 01:35:20;;;;;;;10.27;7.50;;;;;;;11.95;100.00;100511.91;2591363;22;20249;-65
2023/11/11 01:36:21;;;;;;;13.10;7.70;;;;;;;12.01;100.00;100524.00;2592043;22;20162;-65
2023/11/11 01:37:21;;;;;;;13.40;7.73;;;;;;;12.02;100.00;100520.78;2591718;22;20191;-65
2023/11/11 01:38:21;;;;;;;11.07;7.63;;;;;;;12.01;100.00;100519.25;2591573;22;20155;-65
2023/11/11 01:39:22;;;;;;;13.13;7.53;;;;;;;12.05;100.00;100519.13;2592384;22;20230;-65
2023/11/11 01:40:23;;;;;;;11.00;7.53;;;;;;;12.05;100.00;100510.78;2592090;22;20187;-65
2023/11/11 01:41:23;;;;;;;10.67;7.70;;;;;;;11.97;100.00;100501.13;2592177;22;20530;-64
2023/11/11 01:42:24;;;;;;;11.60;7.37;;;;;;;12.02;100.00;100508.88;2591622;22;20533;-65
2023/11/11 01:43:24;;;;;;;10.17;7.27;;;;;;;12.01;100.00;100499.00;2592128;22;20159;-65
2023/11/11 01:44:25;;;;;;;11.83;7.67;;;;;;;12.11;100.00;100506.22;2591064;22;20175;-65
2023/11/11 01:45:25;;;;;;;12.20;8.17;;;;;;;12.11;100.00;100500.66;2592010;22;20151;-65
2023/11/11 01:46:26;;;;;;;10.57;7.23;;;;;;;12.20;100.00;100501.53;2591237;22;20248;-65
2023/11/11 01:47:27;;;;;;;11.13;7.70;;;;;;;12.22;100.00;100499.13;2590960;22;20148;-65
2023/11/11 01:48:30;;;;;;;11.37;7.37;;;;;;;12.24;100.00;100502.22;2591874;22;20155;-65
2023/11/11 01:49:30;;;;;;;11.97;8.57;;;;;;;12.26;100.00;100490.66;2592112;22;20151;-65
2023/11/11 01:50:31;;;;;;;10.80;8.10;;;;;;;12.08;100.00;100502.34;2591537;22;20366;-65
2023/11/11 01:51:33;;;;;;;10.50;7.87;;;;;;;12.09;100.00;100492.78;2591625;22;20148;-65
2023/11/11 01:52:34;;;;;;;11.03;7.60;;;;;;;11.57;100.00;100425.00;2591643;22;20855;-65
2023/11/11 01:53:35;;;;;;;12.00;8.10;;;;;;;12.04;100.00;100490.56;2592070;22;20809;-65
2023/11/11 01:54:37;;;;;;;9.80;7.50;;;;;;;11.20;100.00;100359.19;2591128;22;20157;-65
2023/11/11 01:55:38;;;;;;;10.33;7.57;;;;;;;12.21;100.00;100480.09;2591996;22;20157;-65
2023/11/11 01:56:39;;;;;;;12.60;7.60;;;;;;;12.10;100.00;100485.22;2592025;22;20375;-65
2023/11/11 01:57:39;;;;;;;11.90;6.93;;;;;;;11.45;100.00;100381.38;2591825;22;20185;-65
2023/11/11 01:58:41;;;;;;;13.07;7.80;;;;;;;12.08;100.00;100482.09;2591920;22;20155;-65
2023/11/11 01:59:41;;;;;;;10.80;7.70;;;;;;;12.08;100.00;100471.78;2592656;22;20600;-64
2023/11/11 02:00:43;;;;;;;9.37;6.87;;;;;;;12.02;100.00;100467.22;2591859;22;20772;-65
2023/11/11 02:01:45;;;;;;;12.10;7.73;;;;;;;12.15;100.00;100481.91;2591285;22;20153;-64
2023/11/11 02:02:46;;;;;;;11.23;7.90;;;;;;;12.18;100.00;100483.75;2590855;22;20385;-65
2023/11/11 02:03:47;;;;;;;11.57;7.20;;;;;;;12.16;100.00;100480.66;2591248;22;20913;-65
2023/11/11 02:04:47;;;;;;;9.47;7.13;;;;;;;12.17;100.00;100480.22;2591113;22;20239;-66
2023/11/11 02:05:49;;;;;;;10.63;7.90;;;;;;;12.17;100.00;100482.22;2592139;22;20188;-65
2023/11/11 02:06:50;;;;;;;10.77;7.33;;;;;;;12.20;100.00;100475.78;2591968;22;20153;-65
2023/11/11 02:07:51;;;;;;;11.30;8.10;;;;;;;12.18;100.00;100470.66;2592534;22;20902;-65
2023/11/11 02:08:51;;;;;;;9.47;7.20;;;;;;;12.17;100.00;100471.91;2591574;22;20156;-65
2023/11/11 02:09:52;;;;;;;9.23;6.93;;;;;;;12.18;100.00;100465.09;2592230;22;20408;-66
2023/11/11 02:10:54;;;;;;;9.67;7.30;;;;;;;12.19;100.00;100468.69;2591693;22;20182;-65
2023/11/11 02:11:55;;;;;;;14.27;7.17;;;;;;;12.18;100.00;100461.53;2591192;22;20148;-65
2023/11/11 02:12:56;;;;;;;10.50;6.80;;;;;;;11.86;100.00;100420.94;2592290;22;20371;-65
2023/11/11 02:13:57;;;;;;;11.43;7.93;;;;;;;12.19;100.00;100463.13;2591695;22;20941;-65
2023/11/11 02:14:59;;;;;;;11.67;7.90;;;;;;;12.22;100.00;100471.34;2590920;22;20147;-65
2023/11/11 02:16:01;;;;;;;9.60;6.67;;;;;;;12.21;100.00;100460.66;2592549;22;20701;-65
2023/11/11 02:17:02;;;;;;;15.57;7.90;;;;;;;12.19;100.00;100460.34;2592107;22;20379;-65
2023/11/11 02:18:04;;;;;;;10.90;6.87;;;;;;;12.10;100.00;100451.91;2592177;22;20387;-65
2023/11/11 02:19:05;;;;;;;11.33;7.20;;;;;;;12.15;100.00;100452.09;2592172;22;20411;-65
2023/11/11 02:20:11;;;;;;;10.23;7.33;;;;;;;12.13;100.00;100451.00;2591674;22;20404;-65
2023/11/11 02:21:12;;;;;;;9.60;7.40;;;;;;;12.17;100.00;100455.22;2591377;22;20143;-65
2023/11/11 02:22:13;;;;;;;13.00;8.03;;;;;;;12.18;100.00;100445.66;2591520;22;20367;-65
2023/11/11 02:23:14;;;;;;;9.80;7.13;;;;;;;12.19;100.00;100443.69;2591785;22;20154;-65
2023/11/11 02:24:16;;;;;;;8.47;6.97;;;;;;;12.18;100.00;100437.31;2590936;22;20389;-65
2023/11/11 02:25:17;;;;;;;10.67;7.17;;;;;;;12.16;100.00;100431.44;2591530;22;20227;-65
2023/11/11 02:26:17;;;;;;;9.70;7.43;;;;;;;12.17;100.00;100433.00;2591959;22;20384;-65
2023/11/11 02:27:17;;;;;;;10.80;7.73;;;;;;;12.15;100.00;100431.91;2592529;22;20862;-65
2023/11/11 02:28:19;;;;;;;10.40;7.60;;;;;;;12.16;100.00;100430.66;2591697;22;20668;-65
2023/11/11 02:29:19;;;;;;;10.37;7.87;;;;;;;12.13;100.00;100432.34;2591642;22;20308;-66
2023/11/11 02:30:20;;;;;;;10.07;7.50;;;;;;;11.84;100.00;100395.59;2592290;22;20486;-65
2023/11/11 02:31:21;;;;;;;13.27;8.60;;;;;;;12.09;100.00;100430.91;2592222;22;20209;-65
2023/11/11 02:32:22;;;;;;;9.33;6.97;;;;;;;12.09;100.00;100436.47;2591964;22;20155;-65
2023/11/11 02:33:24;;;;;;;10.67;7.03;;;;;;;11.13;100.00;100290.84;2591976;22;20177;-65
2023/11/11 02:34:24;;;;;;;9.67;7.40;;;;;;;11.75;100.00;100375.31;2590977;22;20849;-65
2023/11/11 02:35:25;;;;;;;9.53;7.40;;;;;;;12.10;100.00;100435.25;2593056;22;20986;-65
2023/11/11 02:36:25;;;;;;;9.63;7.17;;;;;;;11.58;100.00;100349.63;2592504;22;20156;-65
2023/11/11 02:37:26;;;;;;;9.57;7.13;;;;;;;12.16;100.00;100439.78;2591428;22;20180;-65
2023/11/11 02:38:27;;;;;;;10.60;7.47;;;;;;;12.18;100.00;100442.88;2591470;22;20158;-65
2023/11/11 02:39:28;;;;;;;11.20;6.97;;;;;;;12.02;100.00;100414.47;2591858;22;20382;-66
2023/11/11 02:40:28;;;;;;;10.60;7.37;;;;;;;12.15;100.00;100421.53;2591891;22;20155;-65
2023/11/11 02:41:29;;;;;;;11.33;7.80;;;;;;;12.14;100.00;100431.09;2591653;22;20151;-65
2023/11/11 02:42:29;;;;;;;10.53;7.23;;;;;;;12.13;100.00;100429.56;2591548;22;20151;-65
2023/11/11 02:43:29;;;;;;;11.13;7.73;;;;;;;12.13;100.00;100423.22;2592685;22;20178;-65
2023/11/11 02:44:30;;;;;;;9.90;7.43;;;;;;;12.09;100.00;100417.78;2592085;22;20162;-65
2023/11/11 02:45:30;;;;;;;9.80;7.13;;;;;;;11.63;100.00;100359.44;2592784;22;20550;-65
2023/11/11 02:46:31;;;;;;;11.83;7.27;;;;;;;11.79;100.00;100384.31;2594191;22;20174;-65
2023/11/11 02:47:31;;;;;;;10.80;6.97;;;;;;;11.26;100.00;100324.13;2594011;22;20170;-65
2023/11/11 02:48:32;;;;;;;10.33;7.20;;;;;;;12.00;100.00;100422.47;2592399;22;20162;-65
2023/11/11 02:49:33;;;;;;;11.83;7.40;;;;;;;12.01;100.00;100427.59;2592491;22;20165;-66
2023/11/11 02:50:33;;;;;;;10.57;7.67;;;;;;;12.08;100.00;100437.66;2592384;22;20157;-65
2023/11/11 02:51:34;;;;;;;10.73;7.00;;;;;;;11.52;100.00;100351.41;2592528;22;20500;-65
2023/11/11 02:52:35;;;;;;;9.00;6.20;;;;;;;12.09;100.00;100442.78;2592363;22;20159;-65
2023/11/11 02:53:35;;;;;;;10.13;6.87;;;;;;;11.79;100.00;100395.41;2593460;22;20386;-65
2023/11/11 02:54:35;;;;;;;10.70;7.30;;;;;;;12.07;100.00;100436.13;2592173;22;20201;-65
2023/11/11 02:55:36;;;;;;;11.10;7.30;;;;;;;11.97;100.00;100429.69;2592937;22;20154;-65
2023/11/11 02:56:37;;;;;;;10.47;7.00;;;;;;;12.10;100.00;100433.22;2592686;22;20186;-65
2023/11/11 02:57:37;;;;;;;14.10;7.33;;;;;;;12.12;100.00;100435.56;2592703;22;20661;-65
2023/11/11 02:58:38;;;;;;;12.27;6.70;;;;;;;12.14;100.00;100436.66;2592472;22;20161;-65
2023/11/11 02:59:42;;;;;;;8.33;6.57;;;;;;;12.27;100.00;100436.63;2592292;22;20153;-65
2023/11/11 03:00:43;;;;;;;8.43;5.87;;;;;;;12.18;100.00;100439.31;2592742;22;20158;-65
2023/11/11 03:01:44;;;;;;;10.03;6.73;;;;;;;11.97;100.00;100398.38;2592195;22;20386;-65
2023/11/11 03:02:44;;;;;;;11.27;6.30;;;;;;;12.14;100.00;100431.09;2592605;22;20384;-65
2023/11/11 03:03:45;;;;;;;11.57;6.80;;;;;;;12.14;100.00;100428.34;2592814;22;20158;-65
2023/11/11 03:04:45;;;;;;;10.40;6.30;;;;;;;12.14;100.00;100433.13;2591565;22;20212;-65
2023/11/11 03:05:46;;;;;;;10.00;6.50;;;;;;;12.14;100.00;100427.56;2592082;22;20151;-65
2023/11/11 03:06:46;;;;;;;9.60;6.90;;;;;;;12.10;100.00;100426.91;2592785;22;20575;-65
2023/11/11 03:07:47;;;;;;;8.87;6.63;;;;;;;11.78;100.00;100380.72;2593030;22;20147;-65
2023/11/11 03:08:47;;;;;;;9.90;6.83;;;;;;;12.12;100.00;100422.47;2592528;22;20642;-65
2023/11/11 03:09:48;;;;;;;9.43;6.87;;;;;;;12.11;100.00;100418.13;2592892;22;20616;-65
2023/11/11 03:10:48;;;;;;;10.20;6.60;;;;;;;12.10;100.00;100413.78;2594098;22;20221;-65
2023/11/11 03:11:50;;;;;;;9.33;6.73;;;;;;;11.96;100.00;100400.38;2593799;22;20501;-65
2023/11/11 03:12:51;;;;;;;10.83;6.93;;;;;;;11.99;100.00;100407.03;2592576;22;20500;-65
2023/11/11 03:13:51;;;;;;;9.00;6.67;;;;;;;11.92;100.00;100401.69;2592212;22;20726;-65
2023/11/11 03:14:52;;;;;;;8.63;6.27;;;;;;;11.86;100.00;100395.94;2592242;22;20165;-64
2023/11/11 03:15:52;;;;;;;10.83;6.87;;;;;;;11.87;100.00;100402.25;2593048;22;20360;-65
2023/11/11 03:16:53;;;;;;;9.63;6.40;;;;;;;11.23;100.00;100320.22;2592688;22;20162;-65
2023/11/11 03:17:53;;;;;;;8.63;6.20;;;;;;;11.78;100.00;100393.84;2592956;22;20168;-65
2023/11/11 03:18:54;;;;;;;10.33;6.00;;;;;;;11.80;100.00;100388.63;2593082;22;20151;-65
2023/11/11 03:19:55;;;;;;;8.50;6.37;;;;;;;11.84;100.00;100378.94;2592587;22;20147;-65
2023/11/11 03:20:56;;;;;;;9.90;6.90;;;;;;;11.93;100.00;100376.28;2592206;22;20183;-65
2023/11/11 03:21:56;;;;;;;9.57;7.00;;;;;;;11.84;100.00;100365.06;2592338;22;20382;-65
2023/11/11 03:22:56;;;;;;;10.63;6.80;;;;;;;11.91;100.00;100353.75;2593116;22;20161;-65
2023/11/11 03:23:57;;;;;;;10.17;6.83;;;;;;;12.17;100.00;100388.56;2592695;22;20703;-65
2023/11/11 03:24:59;;;;;;;9.37;6.43;;;;;;;12.22;100.00;100381.63;2591616;22;20151;-65
2023/11/11 03:25:59;;;;;;;11.30;6.60;;;;;;;12.25;100.00;100377.97;2592485;22;20210;-65
2023/11/11 03:27:00;;;;;;;9.80;6.70;;;;;;;12.18;100.00;100361.53;2592544;22;20380;-65
2023/11/11 03:28:00;;;;;;;13.03;7.33;;;;;;;12.24;100.00;100368.84;2592437;22;20151;-65
2023/11/11 03:29:01;;;;;;;10.37;7.13;;;;;;;12.26;100.00;100374.75;2593765;22;20239;-65
2023/11/11 03:30:02;;;;;;;10.00;6.30;;;;;;;12.23;100.00;100372.06;2593952;22;20231;-65
2023/11/11 03:31:03;;;;;;;9.53;6.87;;;;;;;12.27;100.00;100378.28;2593863;22;20172;-65
2023/11/11 03:32:04;;;;;;;9.50;6.10;;;;;;;12.26;100.00;100371.97;2592829;22;20395;-65
2023/11/11 03:33:04;;;;;;;8.83;6.33;;;;;;;12.31;100.00;100360.28;2593207;22;20154;-65
2023/11/11 03:34:05;;;;;;;10.53;6.90;;;;;;;11.67;100.00;100266.50;2592374;22;20143;-65
2023/11/11 03:35:05;;;;;;;9.43;6.50;;;;;;;12.25;100.00;100369.66;2592083;22;20240;-65
2023/11/11 03:36:06;;;;;;;8.03;6.03;;;;;;;12.21;100.00;100355.88;2592777;22;20158;-65
2023/11/11 03:37:07;;;;;;;10.63;7.17;;;;;;;12.23;100.00;100375.66;2592689;22;20178;-65
2023/11/11 03:38:09;;;;;;;8.47;5.70;;;;;;;12.14;100.00;100360.91;2592748;22;20150;-65
2023/11/11 03:39:10;;;;;;;8.73;6.33;;;;;;;12.15;100.00;100343.75;2592535;22;20378;-65
2023/11/11 03:40:11;;;;;;;11.70;6.80;;;;;;;12.26;100.00;100360.06;2593205;22;20397;-65
2023/11/11 03:41:11;;;;;;;11.93;6.13;;;;;;;12.20;100.00;100348.00;2593353;22;21043;-65
2023/11/11 03:42:12;;;;;;;10.80;7.17;;;;;;;12.12;100.00;100347.47;2592732;22;20484;-65
2023/11/11 03:43:12;;;;;;;10.13;6.60;;;;;;;12.12;100.00;100339.13;2593037;22;20152;-65
2023/11/11 03:44:13;;;;;;;9.83;6.50;;;;;;;12.14;100.00;100336.66;2592200;22;20156;-65
2023/11/11 03:45:14;;;;;;;10.27;6.63;;;;;;;12.11;100.00;100329.25;2592382;22;20273;-66
2023/11/11 03:46:14;;;;;;;8.83;6.37;;;;;;;11.92;100.00;100308.09;2592361;22;20412;-65
2023/11/11 03:47:15;;;;;;;10.00;6.70;;;;;;;11.63;100.00;100265.84;2593385;22;20207;-65
2023/11/11 03:48:15;;;;;;;9.27;6.43;;;;;;;12.09;100.00;100326.13;2593224;22;20229;-65
2023/11/11 03:49:16;;;;;;;9.23;6.50;;;;;;;11.14;100.00;100187.03;2592979;22;20561;-65
2023/11/11 03:50:16;;;;;;;9.27;6.63;;;;;;;11.94;100.00;100308.41;2593610;22;20185;-65
2023/11/11 03:51:17;;;;;;;9.80;6.20;;;;;;;11.94;100.00;100305.63;2592987;22;20590;-65
2023/11/11 03:52:17;;;;;;;9.10;6.20;;;;;;;11.90;100.00;100301.44;2593268;22;20151;-65
2023/11/11 03:53:18;;;;;;;8.80;6.23;;;;;;;11.91;100.00;100291.88;2592775;22;20504;-65
2023/11/11 03:54:18;;;;;;;8.70;5.93;;;;;;;11.96;100.00;100297.63;2592312;22;20155;-66
2023/11/11 03:55:19;;;;;;;8.97;6.23;;;;;;;11.98;100.00;100308.28;2593115;22;20154;-65
2023/11/11 03:56:19;;;;;;;9.57;6.93;;;;;;;11.96;100.00;100300.41;2593321;22;20151;-66
2023/11/11 03:57:20;;;;;;;10.70;6.87;;;;;;;11.95;100.00;100292.53;2592877;22;20185;-65
2023/11/11 03:58:22;;;;;;;9.33;6.77;;;;;;;12.08;100.00;100312.69;2592855;22;20182;-65
2023/11/11 03:59:23;;;;;;;9.10;6.20;;;;;;;12.13;100.00;100314.88;2592862;22;20642;-65
2023/11/11 04:00:23;;;;;;;10.40;7.13;;;;;;;12.15;100.00;100318.00;2593029;22;20783;-65
2023/11/11 04:01:24;;;;;;;10.30;6.93;;;;;;;11.75;100.00;100262.28;2592618;22;20159;-65
2023/11/11 04:02:25;;;;;;;9.93;6.60;;;;;;;12.15;100.00;100318.00;2592825;22;20233;-65
2023/11/11 04:03:26;;;;;;;9.50;6.53;;;;;;;12.29;100.00;100346.06;2592597;22;20477;-65
2023/11/11 04:04:26;;;;;;;9.97;6.67;;;;;;;12.26;100.00;100355.31;2592053;22;20383;-65
2023/11/11 04:05:27;;;;;;;8.57;6.20;;;;;;;12.27;100.00;100358.84;2592607;22;20665;-65
2023/11/11 04:06:27;;;;;;;11.27;7.03;;;;;;;12.11;100.00;100337.59;2592960;22;20639;-65
2023/11/11 04:07:28;;;;;;;8.93;6.60;;;;;;;12.34;100.00;100367.72;2592795;22;20172;-65
2023/11/11 04:08:29;;;;;;;10.83;6.73;;;;;;;12.35;100.00;100372.03;2593247;22;20607;-65
2023/11/11 04:09:30;;;;;;;9.53;6.53;;;;;;;12.36;100.00;100364.50;2592762;22;20151;-65
2023/11/11 04:10:30;;;;;;;9.53;6.97;;;;;;;11.55;100.00;100255.41;2592951;22;20154;-65
2023/11/11 04:11:31;;;;;;;10.17;7.00;;;;;;;12.35;100.00;100369.25;2593513;22;20393;-65
2023/11/11 04:12:32;;;;;;;10.23;7.00;;;;;;;12.38;100.00;100373.94;2592791;22;20155;-65
2023/11/11 04:13:42;;;;;;;10.57;7.13;;;;;;;12.38;100.00;100378.69;2592573;22;20152;-65
2023/11/11 04:14:42;;;;;;;12.17;7.43;;;;;;;12.36;100.00;100378.38;2592091;22;20135;-65
2023/11/11 04:15:43;;;;;;;9.63;6.63;;;;;;;12.11;100.00;100350.69;2592774;22;20893;-66
2023/11/11 04:16:44;;;;;;;10.83;6.50;;;;;;;11.76;100.00;100288.00;2592940;22;20156;-65
2023/11/11 04:17:45;;;;;;;9.43;6.97;;;;;;;12.39;100.00;100375.47;2592937;22;20571;-65
2023/11/11 04:18:45;;;;;;;10.13;6.67;;;;;;;12.39;100.00;100377.47;2593177;22;20385;-65
2023/11/11 04:19:46;;;;;;;11.37;7.03;;;;;;;12.20;100.00;100339.66;2593047;22;20151;-66
2023/11/11 04:20:47;;;;;;;8.13;6.10;;;;;;;12.38;100.00;100368.38;2592885;22;20152;-65
2023/11/11 04:21:49;;;;;;;11.17;6.87;;;;;;;11.71;100.00;100267.16;2592777;22;20366;-65
2023/11/11 04:22:50;;;;;;;10.13;6.87;;;;;;;12.34;100.00;100362.16;2592822;22;20161;-65
2023/11/11 04:23:51;;;;;;;13.03;6.97;;;;;;;12.34;100.00;100356.59;2593056;22;20383;-65
2023/11/11 04:24:53;;;;;;;10.60;7.50;;;;;;;12.34;100.00;100356.59;2592262;22;20158;-66
2023/11/11 04:25:56;;;;;;;10.90;6.87;;;;;;;12.31;100.00;100351.16;2593405;22;20151;-65
2023/11/11 04:26:57;;;;;;;10.80;7.27;;;;;;;12.31;100.00;100338.06;2592839;22;20731;-65
2023/11/11 04:27:57;;;;;;;10.80;7.20;;;;;;;12.28;100.00;100343.72;2593108;22;20382;-65
2023/11/11 04:28:59;;;;;;;11.13;7.63;;;;;;;12.24;100.00;100338.28;2592596;22;20174;-65
2023/11/11 04:29:59;;;;;;;8.67;6.60;;;;;;;12.08;100.00;100309.91;2592255;22;20157;-65
2023/11/11 04:31:00;;;;;;;9.77;7.27;;;;;;;12.26;100.00;100338.66;2593979;22;20458;-65
2023/11/11 04:32:00;;;;;;;11.17;7.30;;;;;;;12.09;100.00;100331.69;2592554;22;20153;-65
2023/11/11 04:33:01;;;;;;;10.93;6.97;;;;;;;12.21;100.00;100346.75;2592877;22;20558;-65
2023/11/11 04:34:01;;;;;;;10.40;7.30;;;;;;;12.25;100.00;100350.19;2592114;22;20154;-65
2023/11/11 04:35:03;;;;;;;13.37;7.40;;;;;;;12.24;100.00;100348.66;2592618;22;20598;-65
2023/11/11 04:36:04;;;;;;;10.83;7.37;;;;;;;12.24;100.00;100345.88;2592914;22;20182;-65
2023/11/11 04:37:05;;;;;;;9.57;7.00;;;;;;;12.25;100.00;100345.41;2592399;22;20410;-65
2023/11/11 04:38:07;;;;;;;10.80;7.47;;;;;;;12.08;100.00;100313.47;2592772;22;20610;-65